createdAt,value
2023-04-11T04:00:46.593Z,8.45
2023-04-11T04:01:47.641Z,8.40
2023-04-11T04:02:47.680Z,8.34
2023-04-11T04:03:47.876Z,8.34
2023-04-11T04:04:47.534Z,8.33
2023-04-11T04:05:47.487Z,8.34
2023-04-11T04:06:47.442Z,8.38
2023-04-11T04:07:47.436Z,8.43
2023-04-11T04:08:47.417Z,8.52
2023-04-11T04:09:47.420Z,8.53
2023-04-11T04:10:47.442Z,8.59
2023-04-11T04:11:47.478Z,8.63
2023-04-11T04:12:47.407Z,8.79
2023-04-11T04:13:47.376Z,8.74
2023-04-11T04:14:47.377Z,8.81
2023-04-11T04:15:47.367Z,8.84
2023-04-11T04:16:47.364Z,8.77
2023-04-11T04:17:47.407Z,8.73
2023-04-11T04:18:47.345Z,8.71
2023-04-11T04:19:47.301Z,8.73
2023-04-11T04:20:47.327Z,8.71
2023-04-11T04:21:47.339Z,8.74
2023-04-11T04:22:47.366Z,8.76
2023-04-11T04:23:47.304Z,8.74
2023-04-11T04:24:47.262Z,8.73
2023-04-11T04:25:47.271Z,8.74
2023-04-11T04:26:47.238Z,8.84
2023-04-11T04:27:47.224Z,8.89
2023-04-11T04:28:47.219Z,8.91
2023-04-11T04:29:47.210Z,8.89
2023-04-11T04:30:47.254Z,8.91
2023-04-11T04:31:47.225Z,8.87
2023-04-11T04:32:47.206Z,8.86
2023-04-11T04:33:47.159Z,8.83
2023-04-11T04:34:47.210Z,8.81
2023-04-11T04:35:47.186Z,8.92
2023-04-11T04:36:47.164Z,8.94
2023-04-11T04:37:47.111Z,8.91
2023-04-11T04:38:47.148Z,8.94
2023-04-11T04:39:47.101Z,8.94
2023-04-11T04:40:48.936Z,8.92
2023-04-11T04:41:47.067Z,8.94
2023-04-11T04:42:47.078Z,8.92
2023-04-11T04:43:47.052Z,8.87
2023-04-11T04:44:47.046Z,8.86
2023-04-11T04:45:47.140Z,8.84
2023-04-11T04:46:47.063Z,8.84
2023-04-11T04:47:47.055Z,8.84
2023-04-11T04:48:47.007Z,8.83
2023-04-11T04:49:46.992Z,8.77
2023-04-11T04:50:47.028Z,8.79
2023-04-11T04:51:46.989Z,8.81
2023-04-11T04:52:46.957Z,8.83
2023-04-11T04:53:46.946Z,8.84
2023-04-11T04:54:46.952Z,8.81
2023-04-11T04:55:46.976Z,8.83
2023-04-11T04:56:46.920Z,8.86
2023-04-11T04:57:46.939Z,8.86
2023-04-11T04:58:46.904Z,8.95
2023-04-11T04:59:46.895Z,8.98
2023-04-11T05:00:46.952Z,8.94
2023-04-11T05:01:46.915Z,8.91
2023-04-11T05:02:46.926Z,8.95
2023-04-11T05:03:46.946Z,8.94
2023-04-11T05:04:46.874Z,8.86
2023-04-11T05:05:46.849Z,8.70
2023-04-11T05:06:46.849Z,8.50
2023-04-11T05:07:46.793Z,8.38
2023-04-11T05:08:46.788Z,8.29
2023-04-11T05:09:46.782Z,8.22
2023-04-11T05:10:46.818Z,8.11
2023-04-11T05:11:46.767Z,8.11
2023-04-11T05:12:46.765Z,8.11
2023-04-11T05:13:46.751Z,8.10
2023-04-11T05:14:46.725Z,8.11
2023-04-11T05:15:46.739Z,8.08
2023-04-11T05:16:46.817Z,8.11
2023-04-11T05:17:46.735Z,8.20
2023-04-11T05:18:46.739Z,8.20
2023-04-11T05:19:46.685Z,8.15
2023-04-11T05:20:46.710Z,8.15
2023-04-11T05:21:46.656Z,8.10
2023-04-11T05:22:46.691Z,8.08
2023-04-11T05:23:46.646Z,8.10
2023-04-11T05:24:46.643Z,8.11
2023-04-11T05:25:46.652Z,8.12
2023-04-11T05:26:46.645Z,8.11
2023-04-11T05:27:46.589Z,8.08
2023-04-11T05:28:46.606Z,8.12
2023-04-11T05:29:46.596Z,8.12
2023-04-11T05:30:46.642Z,8.15
2023-04-11T05:31:46.611Z,8.12
2023-04-11T05:32:46.619Z,8.10
2023-04-11T05:33:46.532Z,8.10
2023-04-11T05:34:46.531Z,8.11
2023-04-11T05:35:46.568Z,8.18
2023-04-11T05:36:46.501Z,8.23
2023-04-11T05:37:46.507Z,8.23
2023-04-11T05:38:46.513Z,8.25
2023-04-11T05:39:46.528Z,8.25
2023-04-11T05:40:46.537Z,8.22
2023-04-11T05:41:46.492Z,8.25
2023-04-11T05:42:46.451Z,8.34
2023-04-11T05:43:46.456Z,8.33
2023-04-11T05:44:46.454Z,8.30
2023-04-11T05:45:46.490Z,8.33
2023-04-11T05:46:46.422Z,8.29
2023-04-11T05:47:46.419Z,8.28
2023-04-11T05:48:46.385Z,8.30
2023-04-11T05:49:46.488Z,8.28
2023-04-11T05:50:46.382Z,8.34
2023-04-11T05:51:46.347Z,8.34
2023-04-11T05:52:46.348Z,8.38
2023-04-11T05:53:46.344Z,8.43
2023-04-11T05:54:46.309Z,8.48
2023-04-11T05:55:46.360Z,8.48
2023-04-11T05:56:46.312Z,8.50
2023-04-11T05:57:46.295Z,8.50
2023-04-11T05:58:46.319Z,8.55
2023-04-11T05:59:46.296Z,8.59
2023-04-11T06:00:46.287Z,8.61
2023-04-11T06:01:46.261Z,8.66
2023-04-11T06:02:46.374Z,8.68
2023-04-11T06:03:46.423Z,8.73
2023-04-11T06:04:46.301Z,8.79
2023-04-11T06:05:46.208Z,8.79
2023-04-11T06:06:46.223Z,8.74
2023-04-11T06:07:46.178Z,8.79
2023-04-11T06:08:46.181Z,8.79
2023-04-11T06:09:46.160Z,8.83
2023-04-11T06:10:46.215Z,8.86
2023-04-11T06:11:46.148Z,8.87
2023-04-11T06:12:46.146Z,8.89
2023-04-11T06:13:46.106Z,8.94
2023-04-11T06:14:46.117Z,8.95
2023-04-11T06:15:46.161Z,8.94
2023-04-11T06:16:46.116Z,8.95
2023-04-11T06:17:46.119Z,8.95
2023-04-11T06:18:46.060Z,8.98
2023-04-11T06:19:46.047Z,8.95
2023-04-11T06:20:46.077Z,8.98
2023-04-11T06:21:46.077Z,9.01
2023-04-11T06:22:46.041Z,8.99
2023-04-11T06:23:46.017Z,9.08
2023-04-11T06:24:46.022Z,9.11
2023-04-11T06:25:46.003Z,9.17
2023-04-11T06:26:45.993Z,9.15
2023-04-11T06:27:45.959Z,9.13
2023-04-11T06:28:45.977Z,9.08
2023-04-11T06:29:45.972Z,9.08
2023-04-11T06:30:45.960Z,9.10
2023-04-11T06:31:45.945Z,9.08
2023-04-11T06:32:45.950Z,9.11
2023-04-11T06:33:45.938Z,9.15
2023-04-11T06:34:45.906Z,9.18
2023-04-11T06:35:45.974Z,9.28
2023-04-11T06:36:45.870Z,9.36
2023-04-11T06:37:45.873Z,9.40
2023-04-11T06:38:45.854Z,9.43
2023-04-11T06:39:45.879Z,9.50
2023-04-11T06:40:45.848Z,9.51
2023-04-11T06:41:45.822Z,9.53
2023-04-11T06:42:45.807Z,9.61
2023-04-11T06:43:45.811Z,9.56
2023-04-11T06:44:45.906Z,9.64
2023-04-11T06:45:45.812Z,9.71
2023-04-11T06:46:46.524Z,9.69
2023-04-11T06:47:45.831Z,9.56
2023-04-11T06:48:45.778Z,9.42
2023-04-11T06:49:45.735Z,9.39
2023-04-11T06:50:45.752Z,9.32
2023-04-11T06:51:45.703Z,9.24
2023-04-11T06:52:45.737Z,9.18
2023-04-11T06:53:45.718Z,9.20
2023-04-11T06:54:45.698Z,9.23
2023-04-11T06:55:45.704Z,9.18
2023-04-11T06:56:45.705Z,9.18
2023-04-11T06:57:45.670Z,9.11
2023-04-11T06:58:45.655Z,9.15
2023-04-11T06:59:45.657Z,9.21
2023-04-11T07:00:45.680Z,9.31
2023-04-11T07:01:45.717Z,9.36
2023-04-11T07:02:45.824Z,9.42
2023-04-11T07:03:45.848Z,9.51
2023-04-11T07:04:45.705Z,9.50
2023-04-11T07:05:45.579Z,9.65
2023-04-11T07:06:45.571Z,9.75
2023-04-11T07:07:45.549Z,9.81
2023-04-11T07:08:45.528Z,9.75
2023-04-11T07:09:45.517Z,9.72
2023-04-11T07:10:45.559Z,9.72
2023-04-11T07:11:45.510Z,9.81
2023-04-11T07:12:45.510Z,9.90
2023-04-11T07:13:45.541Z,9.99
2023-04-11T07:14:45.470Z,10.01
2023-04-11T07:15:45.526Z,10.07
2023-04-11T07:16:45.877Z,10.17
2023-04-11T07:17:45.466Z,10.20
2023-04-11T07:18:45.424Z,10.20
2023-04-11T07:19:45.424Z,10.23
2023-04-11T07:20:45.433Z,10.12
2023-04-11T07:21:45.413Z,10.20
2023-04-11T07:22:45.448Z,10.29
2023-04-11T07:23:45.401Z,10.36
2023-04-11T07:24:45.380Z,10.44
2023-04-11T07:25:45.398Z,10.20
2023-04-11T07:26:45.347Z,10.27
2023-04-11T07:27:45.360Z,10.25
2023-04-11T07:28:45.350Z,10.25
2023-04-11T07:29:45.308Z,10.34
2023-04-11T07:30:45.360Z,10.25
2023-04-11T07:31:45.436Z,10.25
2023-04-11T07:32:45.366Z,10.63
2023-04-11T07:33:45.304Z,11.07
2023-04-11T07:34:45.282Z,10.64
2023-04-11T07:35:45.302Z,10.51
2023-04-11T07:36:45.239Z,10.42
2023-04-11T07:37:45.264Z,10.44
2023-04-11T07:38:45.247Z,11.04
2023-04-11T07:39:45.257Z,11.14
2023-04-11T07:40:45.210Z,11.07
2023-04-11T07:41:45.187Z,11.04
2023-04-11T07:42:45.185Z,11.11
2023-04-11T07:43:45.160Z,10.96
2023-04-11T07:44:45.158Z,10.44
2023-04-11T07:45:45.185Z,10.34
2023-04-11T07:46:45.157Z,10.17
2023-04-11T07:47:45.206Z,10.34
2023-04-11T07:48:45.130Z,10.07
2023-04-11T07:49:45.093Z,9.91
2023-04-11T07:50:45.111Z,11.22
2023-04-11T07:51:45.073Z,12.01
2023-04-11T07:52:45.067Z,12.27
2023-04-11T07:53:45.053Z,11.43
2023-04-11T07:54:45.046Z,11.07
2023-04-11T07:55:45.057Z,11.10
2023-04-11T07:56:45.042Z,10.68
2023-04-11T07:57:45.005Z,10.44
2023-04-11T07:58:45.018Z,10.36
2023-04-11T07:59:44.983Z,10.32
2023-04-11T08:00:45.005Z,10.79
2023-04-11T08:01:45.055Z,12.24
2023-04-11T08:02:45.116Z,12.64
2023-04-11T08:03:45.006Z,13.19
2023-04-11T08:04:45.148Z,13.30
2023-04-11T08:05:44.967Z,12.13
2023-04-11T08:06:44.920Z,12.27
2023-04-11T08:07:44.907Z,11.86
2023-04-11T08:08:44.910Z,12.52
2023-04-11T08:09:44.952Z,11.85
2023-04-11T08:10:44.922Z,11.37
2023-04-11T08:11:44.876Z,10.86
2023-04-11T08:12:44.876Z,10.47
2023-04-11T08:13:44.843Z,10.17
2023-04-11T08:14:44.870Z,10.08
2023-04-11T08:15:44.821Z,10.07
2023-04-11T08:16:44.844Z,10.02
2023-04-11T08:17:44.838Z,10.07
2023-04-11T08:18:44.812Z,9.87
2023-04-11T08:19:44.848Z,9.86
2023-04-11T08:20:44.797Z,9.84
2023-04-11T08:21:44.767Z,9.76
2023-04-11T08:22:44.839Z,9.81
2023-04-11T08:23:44.772Z,9.76
2023-04-11T08:24:44.806Z,9.93
2023-04-11T08:25:44.730Z,10.55
2023-04-11T08:26:44.716Z,10.60
2023-04-11T08:27:44.709Z,10.12
2023-04-11T08:28:44.755Z,9.96
2023-04-11T08:29:44.725Z,9.75
2023-04-11T08:30:44.710Z,10.61
2023-04-11T08:31:44.690Z,12.42
2023-04-11T08:32:44.735Z,12.24
2023-04-11T08:33:44.761Z,11.43
2023-04-11T08:34:44.689Z,12.68
2023-04-11T08:35:44.645Z,13.54
2023-04-11T08:36:44.650Z,14.33
2023-04-11T08:37:44.651Z,14.57
2023-04-11T08:38:44.592Z,13.11
2023-04-11T08:39:44.613Z,14.03
2023-04-11T08:40:44.576Z,12.49
2023-04-11T08:41:44.594Z,12.95
2023-04-11T08:42:44.553Z,12.27
2023-04-11T08:43:44.558Z,11.75
2023-04-11T08:44:44.568Z,12.10
2023-04-11T08:45:44.562Z,12.28
2023-04-11T08:46:44.532Z,12.34
2023-04-11T08:47:45.586Z,11.80
2023-04-11T08:48:44.486Z,11.79
2023-04-11T08:49:44.526Z,11.61
2023-04-11T08:50:44.470Z,12.34
2023-04-11T08:51:44.492Z,12.47
2023-04-11T08:52:45.201Z,13.14
2023-04-11T08:53:44.461Z,13.60
2023-04-11T08:54:44.485Z,14.27
2023-04-11T08:55:44.436Z,13.46
2023-04-11T08:56:44.418Z,12.86
2023-04-11T08:57:44.411Z,12.67
2023-04-11T08:58:44.397Z,11.91
2023-04-11T08:59:44.413Z,12.14
2023-04-11T09:00:44.358Z,11.82
2023-04-11T09:01:44.437Z,11.52
2023-04-11T09:02:44.409Z,11.22
2023-04-11T09:03:44.378Z,11.03
2023-04-11T09:04:44.418Z,10.81
2023-04-11T09:05:44.311Z,10.64
2023-04-11T09:06:44.326Z,10.52
2023-04-11T09:07:44.298Z,10.42
2023-04-11T09:08:44.272Z,10.48
2023-04-11T09:09:44.311Z,10.55
2023-04-11T09:10:44.256Z,10.63
2023-04-11T09:11:44.245Z,10.70
2023-04-11T09:12:44.232Z,11.22
2023-04-11T09:13:44.242Z,12.16
2023-04-11T09:14:44.489Z,12.17
2023-04-11T09:15:44.232Z,12.47
2023-04-11T09:16:44.188Z,13.63
2023-04-11T09:17:44.261Z,14.46
2023-04-11T09:18:44.206Z,13.97
2023-04-11T09:19:45.634Z,13.41
2023-04-11T09:20:44.142Z,13.15
2023-04-11T09:21:44.143Z,12.77
2023-04-11T09:22:44.135Z,12.24
2023-04-11T09:23:44.123Z,11.75
2023-04-11T09:24:44.136Z,11.75
2023-04-11T09:25:44.116Z,11.76
2023-04-11T09:26:44.097Z,11.42
2023-04-11T09:27:44.077Z,11.04
2023-04-11T09:28:44.073Z,10.82
2023-04-11T09:29:44.088Z,10.66
2023-04-11T09:30:44.053Z,10.52
2023-04-11T09:31:44.082Z,10.47
2023-04-11T09:32:44.053Z,10.29
2023-04-11T09:33:44.023Z,10.11
2023-04-11T09:34:44.045Z,9.81
2023-04-11T09:35:44.122Z,9.05
2023-04-11T09:36:43.993Z,8.52
2023-04-11T09:37:44.034Z,8.11
2023-04-11T09:38:44.041Z,7.75
2023-04-11T09:39:51.524Z,7.39
2023-04-11T09:40:43.976Z,7.09
2023-04-11T09:41:43.982Z,6.89
2023-04-11T09:42:43.944Z,6.74
2023-04-11T09:43:43.936Z,6.67
2023-04-11T09:44:43.954Z,6.62
2023-04-11T09:45:53.685Z,6.64
2023-04-11T09:46:43.940Z,6.59
2023-04-11T09:47:44.822Z,6.40
2023-04-11T09:48:46.992Z,6.21
2023-04-11T09:49:43.950Z,6.09
2023-04-11T09:50:43.876Z,6.12
2023-04-11T09:51:43.877Z,6.08
2023-04-11T09:52:43.828Z,6.08
2023-04-11T09:53:43.868Z,6.15
2023-04-11T09:54:43.870Z,6.40
2023-04-11T09:55:43.844Z,6.51
2023-04-11T09:56:43.791Z,6.64
2023-04-11T09:57:43.779Z,6.69
2023-04-11T09:58:43.792Z,6.80
2023-04-11T09:59:43.843Z,6.97
2023-04-11T10:00:43.758Z,7.16
2023-04-11T10:01:43.823Z,7.42
2023-04-11T10:02:43.855Z,7.75
2023-04-11T10:03:43.762Z,8.66
2023-04-11T10:04:43.771Z,9.66
2023-04-11T10:05:43.737Z,10.61
2023-04-11T10:06:43.715Z,10.52
2023-04-11T10:07:43.687Z,9.81
2023-04-11T10:08:43.692Z,10.48
2023-04-11T10:09:43.717Z,11.10
2023-04-11T10:10:43.644Z,11.54
2023-04-11T10:11:43.657Z,12.31
2023-04-11T10:12:43.652Z,12.82
2023-04-11T10:13:43.625Z,13.32
2023-04-11T10:14:43.669Z,13.46
2023-04-11T10:15:43.617Z,13.28
2023-04-11T10:16:43.625Z,13.70
2023-04-11T10:17:43.590Z,14.07
2023-04-11T10:18:43.575Z,13.79
2023-04-11T10:19:43.601Z,12.14
2023-04-11T10:20:43.539Z,10.88
2023-04-11T10:21:43.580Z,10.12
2023-04-11T10:22:43.934Z,9.83
2023-04-11T10:23:43.515Z,9.46
2023-04-11T10:24:43.529Z,9.31
2023-04-11T10:25:43.490Z,9.26
2023-04-11T10:26:43.474Z,9.23
2023-04-11T10:27:43.468Z,9.08
2023-04-11T10:28:43.450Z,8.94
2023-04-11T10:29:43.508Z,8.83
2023-04-11T10:30:43.447Z,8.74
2023-04-11T10:31:43.445Z,8.62
2023-04-11T10:32:43.429Z,8.45
2023-04-11T10:33:43.407Z,8.38
2023-04-11T10:34:43.413Z,8.20
2023-04-11T10:35:43.409Z,8.12
2023-04-11T10:36:43.380Z,8.08
2023-04-11T10:37:43.376Z,8.16
2023-04-11T10:38:43.462Z,8.12
2023-04-11T10:39:43.404Z,8.12
2023-04-11T10:40:43.325Z,8.22
2023-04-11T10:41:43.344Z,8.43
2023-04-11T10:42:43.312Z,8.84
2023-04-11T10:43:43.309Z,9.61
2023-04-11T10:44:43.302Z,10.81
2023-04-11T10:45:43.298Z,11.91
2023-04-11T10:46:43.309Z,11.58
2023-04-11T10:47:43.312Z,10.99
2023-04-11T10:48:43.241Z,10.64
2023-04-11T10:49:44.934Z,11.55
2023-04-11T10:50:43.229Z,12.54
2023-04-11T10:51:43.221Z,12.79
2023-04-11T10:52:43.205Z,12.92
2023-04-11T10:53:43.226Z,13.17
2023-04-11T10:54:43.229Z,13.19
2023-04-11T10:55:43.173Z,13.20
2023-04-11T10:56:43.206Z,12.93
2023-04-11T10:57:43.166Z,13.69
2023-04-11T10:58:43.144Z,14.06
2023-04-11T10:59:43.199Z,13.62
2023-04-11T11:00:43.169Z,14.04
2023-04-11T11:02:43.400Z,14.33
2023-04-11T11:03:43.244Z,14.40
2023-04-11T11:04:43.248Z,14.07
2023-04-11T11:05:43.075Z,14.10
2023-04-11T11:06:50.817Z,14.46
2023-04-11T11:07:43.082Z,15.59
2023-04-11T11:08:43.034Z,15.86
2023-04-11T11:09:43.097Z,15.69
2023-04-11T11:10:43.036Z,15.25
2023-04-11T11:11:43.011Z,15.67
2023-04-11T11:12:42.996Z,15.93
2023-04-11T11:13:42.997Z,16.23
2023-04-11T11:14:43.001Z,16.49
2023-04-11T11:15:42.983Z,16.67
2023-04-11T11:16:43.445Z,17.16
2023-04-11T11:17:43.030Z,16.68
2023-04-11T11:18:42.931Z,16.58
2023-04-11T11:19:42.942Z,15.68
2023-04-11T11:20:42.914Z,16.08
2023-04-11T11:21:42.904Z,16.17
2023-04-11T11:22:42.892Z,14.78
2023-04-11T11:23:42.870Z,15.38
2023-04-11T11:24:42.899Z,16.05
2023-04-11T11:25:42.854Z,15.78
2023-04-11T11:26:42.861Z,14.20
2023-04-11T11:27:42.857Z,13.59
2023-04-11T11:28:42.832Z,13.52
2023-04-11T11:29:42.852Z,14.57
2023-04-11T11:30:42.811Z,15.34
2023-04-11T11:31:42.864Z,15.46
2023-04-11T11:32:42.794Z,14.04
2023-04-11T11:33:42.785Z,13.11
2023-04-11T11:34:42.755Z,13.00
2023-04-11T11:35:42.775Z,12.82
2023-04-11T11:36:42.762Z,13.00
2023-04-11T11:37:42.749Z,13.69
2023-04-11T11:38:42.746Z,14.17
2023-04-11T11:39:42.708Z,14.70
2023-04-11T11:40:42.738Z,14.91
2023-04-11T11:41:42.685Z,14.20
2023-04-11T11:42:42.674Z,13.60
2023-04-11T11:43:42.676Z,13.42
2023-04-11T11:44:42.638Z,13.20
2023-04-11T11:45:42.667Z,12.89
2023-04-11T11:46:42.677Z,14.36
2023-04-11T11:47:42.694Z,14.64
2023-04-11T11:48:42.603Z,15.64
2023-04-11T11:49:42.611Z,16.00
2023-04-11T11:50:42.626Z,16.07
2023-04-11T11:51:42.576Z,16.46
2023-04-11T11:52:42.590Z,16.61
2023-04-11T11:53:42.562Z,16.85
2023-04-11T11:54:42.574Z,16.23
2023-04-11T11:55:42.645Z,14.98
2023-04-11T11:56:42.537Z,14.39
2023-04-11T11:57:42.513Z,13.82
2023-04-11T11:58:42.528Z,13.19
2023-04-11T11:59:42.511Z,12.87
2023-04-11T12:00:42.538Z,12.68
2023-04-11T12:01:42.479Z,12.45
2023-04-11T12:02:43.068Z,12.42
2023-04-11T12:03:42.554Z,12.31
2023-04-11T12:04:42.762Z,12.24
2023-04-11T12:05:42.426Z,13.79
2023-04-11T12:06:42.421Z,14.60
2023-04-11T12:07:42.421Z,15.57
2023-04-11T12:08:42.395Z,16.30
2023-04-11T12:09:42.428Z,14.89
2023-04-11T12:10:42.408Z,14.60
2023-04-11T12:11:42.381Z,15.19
2023-04-11T12:12:42.349Z,14.68
2023-04-11T12:13:42.338Z,14.78
2023-04-11T12:14:42.322Z,15.02
2023-04-11T12:15:42.360Z,16.28
2023-04-11T12:16:42.311Z,16.50
2023-04-11T12:17:42.336Z,16.73
2023-04-11T12:18:42.281Z,15.21
2023-04-11T12:19:42.275Z,15.83
2023-04-11T12:20:42.287Z,15.94
2023-04-11T12:21:42.254Z,16.04
2023-04-11T12:22:42.250Z,15.84
2023-04-11T12:23:42.230Z,15.51
2023-04-11T12:24:42.248Z,15.87
2023-04-11T12:25:42.215Z,15.53
2023-04-11T12:26:57.487Z,16.09
2023-04-11T12:27:42.198Z,16.43
2023-04-11T12:28:42.181Z,16.34
2023-04-11T12:29:42.208Z,16.05
2023-04-11T12:30:42.157Z,16.50
2023-04-11T12:31:44.446Z,16.76
2023-04-11T12:32:42.181Z,16.68
2023-04-11T12:33:42.131Z,16.25
2023-04-11T12:34:42.138Z,16.09
2023-04-11T12:35:42.105Z,15.94
2023-04-11T12:36:42.099Z,15.92
2023-04-11T12:37:42.102Z,16.09
2023-04-11T12:38:42.082Z,16.45
2023-04-11T12:39:42.116Z,16.88
2023-04-11T12:40:42.063Z,15.84
2023-04-11T12:41:42.044Z,15.76
2023-04-11T12:43:42.045Z,16.07
2023-04-11T12:44:42.039Z,15.78
2023-04-11T12:45:42.000Z,14.46
2023-04-11T12:46:42.035Z,13.97
2023-04-11T12:47:42.023Z,14.80
2023-04-11T12:48:41.978Z,15.75
2023-04-11T12:49:41.963Z,14.61
2023-04-11T12:50:41.992Z,13.97
2023-04-11T12:51:41.959Z,14.70
2023-04-11T12:52:41.941Z,15.50
2023-04-11T12:53:41.925Z,16.21
2023-04-11T12:54:41.929Z,15.72
2023-04-11T12:55:41.974Z,16.05
2023-04-11T12:56:41.906Z,15.84
2023-04-11T12:57:41.890Z,16.43
2023-04-11T12:58:41.899Z,15.93
2023-04-11T12:59:41.851Z,14.98
2023-04-11T13:00:41.896Z,14.02
2023-04-11T13:01:41.973Z,13.60
2023-04-11T13:02:44.510Z,13.30
2023-04-11T13:03:41.963Z,13.20
2023-04-11T13:04:41.954Z,13.57
2023-04-11T13:05:41.809Z,14.10
2023-04-11T13:06:41.782Z,15.17
2023-04-11T13:07:41.771Z,15.27
2023-04-11T13:08:41.761Z,15.83
2023-04-11T13:09:41.784Z,15.56
2023-04-11T13:10:41.823Z,15.94
2023-04-11T13:11:41.720Z,16.17
2023-04-11T13:12:41.892Z,16.01
2023-04-11T13:13:41.728Z,16.64
2023-04-11T13:14:41.774Z,15.68
2023-04-11T13:15:41.688Z,15.07
2023-04-11T13:16:41.704Z,15.36
2023-04-11T13:17:41.684Z,16.28
2023-04-11T13:18:41.659Z,16.49
2023-04-11T13:19:41.672Z,16.64
2023-04-11T13:20:41.636Z,15.29
2023-04-11T13:21:41.621Z,15.03
2023-04-11T13:22:41.610Z,15.21
2023-04-11T13:23:41.597Z,14.61
2023-04-11T13:24:41.630Z,15.38
2023-04-11T13:25:41.586Z,16.23
2023-04-11T13:26:41.579Z,16.48
2023-04-11T13:27:41.554Z,15.82
2023-04-11T13:28:41.687Z,16.63
2023-04-11T13:29:41.541Z,16.78
2023-04-11T13:30:41.566Z,16.27
2023-04-11T13:31:41.642Z,15.27
2023-04-11T13:32:41.567Z,14.45
2023-04-11T13:33:41.480Z,14.04
2023-04-11T13:34:41.516Z,13.99
2023-04-11T13:35:41.509Z,14.62
2023-04-11T13:36:41.492Z,14.52
2023-04-11T13:37:41.453Z,14.07
2023-04-11T13:38:41.436Z,13.88
2023-04-11T13:39:41.468Z,13.75
2023-04-11T13:40:41.462Z,14.09
2023-04-11T13:41:41.407Z,15.19
2023-04-11T13:42:41.425Z,16.20
2023-04-11T13:43:41.385Z,16.43
2023-04-11T13:44:41.399Z,17.06
2023-04-11T13:45:41.495Z,16.20
2023-04-11T13:46:41.391Z,15.67
2023-04-11T13:47:41.383Z,16.04
2023-04-11T13:48:41.334Z,16.83
2023-04-11T13:49:41.356Z,17.26
2023-04-11T13:50:41.325Z,16.83
2023-04-11T13:51:41.312Z,16.04
2023-04-11T13:52:41.303Z,15.41
2023-04-11T13:53:41.280Z,14.98
2023-04-11T13:54:41.315Z,14.47
2023-04-11T13:55:41.268Z,14.14
2023-04-11T13:56:41.277Z,13.79
2023-04-11T13:57:41.232Z,13.73
2023-04-11T13:58:41.231Z,13.79
2023-04-11T13:59:41.235Z,13.57
2023-04-11T14:00:41.238Z,13.73
2023-04-11T14:01:41.237Z,13.82
2023-04-11T14:02:41.445Z,14.24
2023-04-11T14:03:41.288Z,15.19
2023-04-11T14:04:41.233Z,15.14
2023-04-11T14:05:41.150Z,15.19
2023-04-11T14:06:41.152Z,15.32
2023-04-11T14:07:41.131Z,15.68
2023-04-11T14:08:41.132Z,15.80
2023-04-11T14:09:41.134Z,15.53
2023-04-11T14:10:41.102Z,15.54
2023-04-11T14:11:41.081Z,15.68
2023-04-11T14:12:41.087Z,15.62
2023-04-11T14:13:41.082Z,15.68
2023-04-11T14:14:41.094Z,15.68
2023-04-11T14:15:41.051Z,15.76
2023-04-11T14:16:41.130Z,15.28
2023-04-11T14:17:41.040Z,15.02
2023-04-11T14:18:41.021Z,14.61
2023-04-11T14:19:41.024Z,14.58
2023-04-11T14:20:40.990Z,14.96
2023-04-11T14:21:41.007Z,15.01
2023-04-11T14:22:40.970Z,15.49
2023-04-11T14:23:40.953Z,15.83
2023-04-11T14:24:40.984Z,15.89
2023-04-11T14:25:40.941Z,16.17
2023-04-11T14:26:40.930Z,16.20
2023-04-11T14:27:40.920Z,16.43
2023-04-11T14:28:40.906Z,16.09
2023-04-11T14:29:40.913Z,15.97
2023-04-11T14:30:41.039Z,16.14
2023-04-11T14:31:40.998Z,16.15
2023-04-11T14:32:40.923Z,15.83
2023-04-11T14:33:40.861Z,15.89
2023-04-11T14:34:40.841Z,15.67
2023-04-11T14:35:40.867Z,15.53
2023-04-11T14:36:40.858Z,15.57
2023-04-11T14:37:40.818Z,15.47
2023-04-11T14:38:40.814Z,15.09
2023-04-11T14:39:40.791Z,15.09
2023-04-11T14:40:40.807Z,15.20
2023-04-11T14:41:40.767Z,15.46
2023-04-11T14:42:40.769Z,15.53
2023-04-11T14:43:40.737Z,15.46
2023-04-11T14:44:40.742Z,14.99
2023-04-11T14:45:40.747Z,14.73
2023-04-11T14:46:40.849Z,14.45
2023-04-11T14:47:40.741Z,13.95
2023-04-11T14:48:40.691Z,14.03
2023-04-11T14:49:40.672Z,14.18
2023-04-11T14:50:40.742Z,13.88
2023-04-11T14:51:40.668Z,13.70
2023-04-11T14:52:40.646Z,13.81
2023-04-11T14:53:40.634Z,14.39
2023-04-11T14:54:40.656Z,14.51
2023-04-11T14:55:42.072Z,14.39
2023-04-11T14:56:40.632Z,14.36
2023-04-11T14:57:40.592Z,14.35
2023-04-11T14:58:40.588Z,14.54
2023-04-11T14:59:40.602Z,14.69
2023-04-11T15:00:40.569Z,15.09
2023-04-11T15:01:40.641Z,15.09
2023-04-11T15:02:40.607Z,14.86
2023-04-11T15:03:40.699Z,14.96
2023-04-11T15:04:40.590Z,14.99
2023-04-11T15:05:40.526Z,15.14
2023-04-11T15:06:40.511Z,15.16
2023-04-11T15:07:40.483Z,15.16
2023-04-11T15:08:40.481Z,15.17
2023-04-11T15:09:40.471Z,14.94
2023-04-11T15:10:40.496Z,14.89
2023-04-11T15:11:40.443Z,14.84
2023-04-11T15:12:40.438Z,14.89
2023-04-11T15:13:40.428Z,15.03
2023-04-11T15:14:40.436Z,14.88
2023-04-11T15:15:40.425Z,14.51
2023-04-11T15:16:40.393Z,14.46
2023-04-11T15:17:40.436Z,14.62
2023-04-11T15:18:40.374Z,14.72
2023-04-11T15:19:40.389Z,14.89
2023-04-11T15:20:40.352Z,14.84
2023-04-11T15:21:40.340Z,14.64
2023-04-11T15:22:41.423Z,14.58
2023-04-11T15:23:40.317Z,14.69
2023-04-11T15:24:40.370Z,14.61
2023-04-11T15:25:40.296Z,14.36
2023-04-11T15:26:40.295Z,14.43
2023-04-11T15:27:40.280Z,14.45
2023-04-11T15:28:40.265Z,14.50
2023-04-11T15:29:40.276Z,14.54
2023-04-11T15:30:40.244Z,14.62
2023-04-11T15:31:40.300Z,14.65
2023-04-11T15:32:40.264Z,14.78
2023-04-11T15:33:40.231Z,14.89
2023-04-11T15:34:40.232Z,14.98
2023-04-11T15:35:40.213Z,14.69
2023-04-11T15:36:40.179Z,14.69
2023-04-11T15:37:40.174Z,14.84
2023-04-11T15:38:40.201Z,14.81
2023-04-11T15:39:40.164Z,14.52
2023-04-11T15:40:40.171Z,14.57
2023-04-11T15:41:40.133Z,14.78
2023-04-11T15:42:40.182Z,14.72
2023-04-11T15:43:40.146Z,14.60
2023-04-11T15:44:40.116Z,14.65
2023-04-11T15:45:40.082Z,14.60
2023-04-11T15:46:40.128Z,14.60
2023-04-11T15:47:40.078Z,14.72
2023-04-11T15:48:40.068Z,14.75
2023-04-11T15:49:40.085Z,14.70
2023-04-11T15:50:40.034Z,14.80
2023-04-11T15:51:40.036Z,14.72
2023-04-11T15:52:40.011Z,14.88
2023-04-11T15:53:39.998Z,14.70
2023-04-11T15:54:40.064Z,14.94
2023-04-11T15:55:39.977Z,15.01
2023-04-11T15:56:39.979Z,15.09
2023-04-11T15:57:39.966Z,15.38
2023-04-11T15:58:39.946Z,15.36
2023-04-11T15:59:39.975Z,15.46
2023-04-11T16:00:39.958Z,15.51
2023-04-11T16:01:40.020Z,15.78
2023-04-11T16:02:40.054Z,15.74
2023-04-11T16:03:40.087Z,15.54
2023-04-11T16:04:39.942Z,15.16
2023-04-11T16:05:39.879Z,14.47
2023-04-11T16:06:39.868Z,14.09
2023-04-11T16:07:39.890Z,13.91
2023-04-11T16:08:39.891Z,13.70
2023-04-11T16:09:39.874Z,13.49
2023-04-11T16:10:39.844Z,13.42
2023-04-11T16:11:39.817Z,13.32
2023-04-11T16:12:39.801Z,13.23
2023-04-11T16:13:40.189Z,13.19
2023-04-11T16:14:39.809Z,13.15
2023-04-11T16:15:39.773Z,13.44
2023-04-11T16:16:39.888Z,13.84
2023-04-11T16:17:39.799Z,14.03
2023-04-11T16:18:39.743Z,14.07
2023-04-11T16:19:39.765Z,14.21
2023-04-11T16:20:39.734Z,14.17
2023-04-11T16:21:39.716Z,14.09
2023-04-11T16:22:39.696Z,14.27
2023-04-11T16:23:39.690Z,14.50
2023-04-11T16:24:39.706Z,14.68
2023-04-11T16:25:39.676Z,14.72
2023-04-11T16:26:39.657Z,14.75
2023-04-11T16:27:39.648Z,14.72
2023-04-11T16:28:39.654Z,14.70
2023-04-11T16:29:39.658Z,14.70
2023-04-11T16:30:39.619Z,14.40
2023-04-11T16:31:39.654Z,14.24
2023-04-11T16:32:39.618Z,14.18
2023-04-11T16:33:39.637Z,14.18
2023-04-11T16:34:39.603Z,14.21
2023-04-11T16:35:39.621Z,14.28
2023-04-11T16:36:39.563Z,14.18
2023-04-11T16:37:39.559Z,14.02
2023-04-11T16:38:39.554Z,13.99
2023-04-11T16:39:39.593Z,14.02
2023-04-11T16:40:39.539Z,13.97
2023-04-11T16:41:39.508Z,13.91
2023-04-11T16:42:39.519Z,13.79
2023-04-11T16:43:39.492Z,13.71
2023-04-11T16:44:39.485Z,13.67
2023-04-11T16:45:39.509Z,13.67
2023-04-11T16:46:39.485Z,13.66
2023-04-11T16:47:39.490Z,13.64
2023-04-11T16:48:39.449Z,13.66
2023-04-11T16:49:39.435Z,13.63
2023-04-11T16:50:39.443Z,13.66
2023-04-11T16:51:39.408Z,13.62
2023-04-11T16:52:39.398Z,13.63
2023-04-11T16:53:39.374Z,13.64
2023-04-11T16:54:39.391Z,13.64
2023-04-11T16:55:39.402Z,13.62
2023-04-11T16:56:39.363Z,13.62
2023-04-11T16:57:39.327Z,13.59
2023-04-11T16:58:39.328Z,13.66
2023-04-11T16:59:39.317Z,13.67
2023-04-11T17:00:39.330Z,13.59
2023-04-11T17:01:39.445Z,13.59
2023-04-11T17:02:39.435Z,13.60
2023-04-11T17:03:39.401Z,13.57